KNZY/NZY METAR and TAF weather

Enter ICAO airport designator
Station Type Date Time Source
KNZY METAR 2021/10/22 18:52 UTC NOAA

KNZY 221852Z 31009KT 10SM SCT018 BKN250 18/12 A3004 RMK AO2 SLP170 T01830122


Station Type Date Time Source
KNZY Decoded METAR 2021/10/22 18:52 UTC NOAA

NAS NORTH ISLAND, SAN DIEGO, CA, United States (KNZY) 32-42N 117-13W 14M
Oct 22, 2021 - 02:52 PM EDT / 2021.10.22 1852 UTC
Wind: from the NW (310 degrees) at 10 MPH (9 KT):0
Visibility: 10 mile(s):0
Sky conditions: mostly cloudy
Temperature: 64.9 F (18.3 C)
Dew Point: 54.0 F (12.2 C)
Relative Humidity: 67%
Pressure (altimeter): 30.04 in. Hg (1017 hPa)
ob: KNZY 221852Z 31009KT 10SM SCT018 BKN250 18/12 A3004 RMK AO2 SLP170 T01830122
cycle: 19

Station Type Date Time Source
KNZY TAF 2021/10/22 15:54 UTC NOAA

TAF TAF KNZY 2215/2315 34006KT 9999 OVC010 QNH2999INS
FM221900 31008KT 9999 BKN014 BKN250 QNH2991INS
TEMPO 2219/2300 SCT015
FM230100 31008KT 9999 BKN012 BKN250 QNH2991INS
FM230400 34006KT 9999 BKN012 BKN250 QNH2988INS
TEMPO 2309/2315 8000 -DZ BR OVC009 T20/2221Z T16/2314Z FS30139

Example: see airport list